Time;durP1;ratioP1;P1;durP2;ratioP2;P2;SDS_P1;SDS_P2;PMS_P1;PMS_P2;Temp;Humidity;BMP_temperature;BMP_pressure;BME280_temperature;BME280_humidity;BME280_pressure;Samples;Min_cycle;Max_cycle;Signal;HPM_P1;HPM_P2
2023/06/25 00:00:00;;;;;;;7.57;5.03;;;;;;;19.87;100.00;65070.06;5050646;28;20237;-58
2023/06/25 00:02:26;;;;;;;7.68;5.40;;;;;;;19.84;100.00;65066.72;5050510;28;20197;-60
2023/06/25 00:04:51;;;;;;;5.55;4.38;;;;;;;19.97;100.00;65081.09;5050336;28;20705;-57
2023/06/25 00:07:17;;;;;;;12.48;5.20;;;;;;;19.90;100.00;65075.91;5050336;28;20211;-60
2023/06/25 00:09:53;;;;;;;11.00;5.72;;;;;;;19.88;100.00;65071.16;5050694;28;20302;-58
2023/06/25 00:12:19;;;;;;;12.18;5.28;;;;;;;19.96;100.00;65079.44;5050532;28;20650;-59
2023/06/25 00:14:44;;;;;;;8.32;5.00;;;;;;;19.93;100.00;65073.56;5050198;28;20692;-60
2023/06/25 00:17:10;;;;;;;9.65;5.47;;;;;;;19.81;100.00;65065.44;5050229;28;20208;-61
2023/06/25 00:19:35;;;;;;;11.25;5.72;;;;;;;19.60;100.00;65040.22;5050485;28;20605;-62
2023/06/25 00:22:01;;;;;;;6.30;5.25;;;;;;;19.57;100.00;65036.38;5050166;28;20212;-61
2023/06/25 00:24:26;;;;;;;8.85;5.45;;;;;;;19.54;100.00;65033.59;5032247;28;20206;-63
2023/06/25 00:26:51;;;;;;;7.35;5.15;;;;;;;19.71;100.00;65052.38;5049954;28;20673;-57
2023/06/25 00:29:17;;;;;;;10.45;5.18;;;;;;;19.64;100.00;65044.66;5049887;28;20221;-58
2023/06/25 00:31:43;;;;;;;6.63;5.28;;;;;;;19.46;100.00;65027.31;5049998;28;20690;-57
2023/06/25 00:34:09;;;;;;;7.82;5.65;;;;;;;19.43;100.00;65024.03;5050479;28;20695;-59
2023/06/25 00:36:36;;;;;;;7.57;5.55;;;;;;;19.31;100.00;65008.19;5050136;28;20659;-57
2023/06/25 00:39:05;;;;;;;9.23;6.25;;;;;;;19.32;100.00;65009.28;5050366;28;20240;-60
2023/06/25 00:41:30;;;;;;;11.18;5.82;;;;;;;19.34;100.00;65011.53;5050294;28;20610;-57
2023/06/25 00:43:58;;;;;;;8.50;5.97;;;;;;;19.50;100.00;65028.63;5052024;28;20205;-60
2023/06/25 00:46:25;;;;;;;10.00;6.18;;;;;;;19.42;100.00;65020.34;5053523;28;20241;-60
2023/06/25 00:48:52;;;;;;;8.40;6.28;;;;;;;19.29;100.00;65008.53;5053537;28;20217;-59
2023/06/25 00:51:21;;;;;;;11.63;7.00;;;;;;;19.22;100.00;64996.25;5053330;28;20228;-59
2023/06/25 00:53:47;;;;;;;11.18;6.30;;;;;;;19.28;100.00;65008.00;5053461;28;20232;-59
2023/06/25 00:56:12;;;;;;;8.35;6.90;;;;;;;19.46;100.00;65024.78;5053264;28;20201;-60
2023/06/25 00:58:44;;;;;;;10.65;6.57;;;;;;;19.47;100.00;65025.88;5053436;28;20308;-60
2023/06/25 01:01:20;;;;;;;10.65;7.10;;;;;;;19.49;100.00;65030.09;5053211;28;20209;-60
2023/06/25 01:03:54;;;;;;;9.18;5.45;;;;;;;19.56;100.00;65033.25;5052017;28;20212;-60
2023/06/25 01:06:33;;;;;;;9.82;6.25;;;;;;;19.44;100.00;65022.56;5052236;28;20197;-59
2023/06/25 01:09:00;;;;;;;11.23;5.90;;;;;;;19.45;100.00;65026.22;5053311;28;20591;-60
2023/06/25 01:11:29;;;;;;;7.78;6.03;;;;;;;19.49;100.00;65025.53;5052716;28;20638;-61
2023/06/25 01:13:54;;;;;;;9.77;6.30;;;;;;;19.58;100.00;65035.47;5051691;28;20217;-60
2023/06/25 01:16:20;;;;;;;6.90;5.93;;;;;;;19.65;100.00;65045.19;5052854;28;20545;-60
2023/06/25 01:18:46;;;;;;;10.40;6.00;;;;;;;19.65;100.00;65050.31;5052960;28;20221;-57
2023/06/25 01:21:12;;;;;;;8.48;6.57;;;;;;;19.61;100.00;65043.91;5052898;28;20239;-58
2023/06/25 01:23:38;;;;;;;8.43;5.53;;;;;;;19.41;100.00;65018.69;5053121;28;20209;-59
2023/06/25 01:26:03;;;;;;;9.75;5.85;;;;;;;19.31;100.00;65010.19;5052796;28;20227;-59
2023/06/25 01:28:29;;;;;;;10.88;6.53;;;;;;;19.26;100.00;65002.66;5052857;28;20304;-59
2023/06/25 01:30:55;;;;;;;6.93;5.50;;;;;;;19.19;100.00;64998.03;5052615;28;20280;-59
2023/06/25 01:33:25;;;;;;;11.05;5.78;;;;;;;19.18;100.00;64994.41;5052854;28;20594;-57
2023/06/25 01:35:51;;;;;;;7.88;5.60;;;;;;;19.24;100.00;65003.00;5052840;28;20205;-60
2023/06/25 01:38:16;;;;;;;8.50;5.35;;;;;;;19.23;100.00;65001.91;5052607;28;20224;-59
2023/06/25 01:40:42;;;;;;;12.40;6.45;;;;;;;18.99;100.00;64970.84;5052642;28;20228;-58
2023/06/25 01:43:07;;;;;;;6.70;5.53;;;;;;;18.77;100.00;64948.59;5052572;28;20225;-60
2023/06/25 01:45:33;;;;;;;10.23;5.40;;;;;;;18.62;100.00;64934.59;5052366;28;20212;-59
2023/06/25 01:47:59;;;;;;;8.65;5.47;;;;;;;18.63;100.00;64936.25;5052349;28;20186;-59
2023/06/25 01:50:24;;;;;;;10.90;5.72;;;;;;;18.50;100.00;64921.38;5052431;28;20564;-60
2023/06/25 01:52:49;;;;;;;9.25;5.78;;;;;;;18.44;100.00;64915.31;5052333;28;20232;-60
2023/06/25 01:55:15;;;;;;;10.98;5.78;;;;;;;18.40;100.00;64911.41;5051792;28;20214;-60
2023/06/25 01:57:40;;;;;;;7.13;4.93;;;;;;;18.41;100.00;64909.97;5050897;28;20243;-58
2023/06/25 02:00:08;;;;;;;10.40;4.95;;;;;;;18.39;100.00;64907.75;5051877;28;20210;-58
2023/06/25 02:02:33;;;;;;;7.63;4.80;;;;;;;18.34;100.00;64902.22;5051295;28;20209;-59
2023/06/25 02:04:59;;;;;;;12.10;5.80;;;;;;;18.50;100.00;64919.38;5052212;28;20248;-58
2023/06/25 02:07:24;;;;;;;8.35;5.20;;;;;;;18.41;100.00;64909.97;5034307;28;20228;-59
2023/06/25 02:09:50;;;;;;;11.13;5.63;;;;;;;18.41;100.00;64909.97;5052096;28;20210;-59
2023/06/25 02:12:15;;;;;;;8.18;5.63;;;;;;;18.36;100.00;64904.44;5050965;28;20201;-59
2023/06/25 02:14:41;;;;;;;9.93;5.10;;;;;;;18.30;100.00;64897.81;5051111;28;20243;-60
2023/06/25 02:17:06;;;;;;;10.07;6.10;;;;;;;18.32;100.00;64900.03;5051819;28;20660;-58
2023/06/25 02:19:32;;;;;;;12.20;6.05;;;;;;;18.24;100.00;64890.66;5034120;28;20220;-59
2023/06/25 02:21:57;;;;;;;11.32;6.45;;;;;;;18.20;100.00;64886.78;5051883;28;20288;-56
2023/06/25 02:24:23;;;;;;;14.15;6.60;;;;;;;18.15;100.00;64880.72;5051806;28;20606;-59
2023/06/25 02:26:48;;;;;;;9.90;7.45;;;;;;;18.21;100.00;64885.34;5051946;28;20236;-57
2023/06/25 02:29:14;;;;;;;11.80;7.20;;;;;;;18.21;100.00;64887.91;5052183;28;20224;-55
2023/06/25 02:31:39;;;;;;;12.15;7.05;;;;;;;18.25;100.00;64894.88;5051737;28;20208;-58
2023/06/25 02:34:04;;;;;;;12.27;7.93;;;;;;;18.16;100.00;64882.38;5051869;28;20244;-59
2023/06/25 02:36:30;;;;;;;16.63;8.43;;;;;;;18.14;100.00;64882.72;5052059;28;20716;-60
2023/06/25 02:38:55;;;;;;;14.65;7.93;;;;;;;18.19;100.00;64885.16;5052178;28;20827;-59
2023/06/25 02:41:21;;;;;;;15.32;7.53;;;;;;;18.16;100.00;64884.41;5051817;28;20196;-56
2023/06/25 02:43:47;;;;;;;16.95;8.20;;;;;;;18.12;100.00;64880.53;5051714;28;20209;-60
2023/06/25 02:46:12;;;;;;;13.63;8.48;;;;;;;18.14;100.00;64884.75;5051704;28;20229;-59
2023/06/25 02:48:39;;;;;;;16.63;9.07;;;;;;;18.14;100.00;64882.19;5051793;28;20303;-60
2023/06/25 02:51:04;;;;;;;11.23;8.80;;;;;;;18.22;100.00;64891.00;5051545;28;20201;-62
2023/06/25 02:53:29;;;;;;;14.75;8.23;;;;;;;18.25;100.00;64892.31;5051475;28;20221;-58
2023/06/25 02:55:55;;;;;;;15.20;8.95;;;;;;;18.27;100.00;64897.06;5051595;28;20616;-60
2023/06/25 02:58:20;;;;;;;11.90;7.97;;;;;;;18.25;100.00;64894.31;5051436;28;20208;-58
2023/06/25 03:00:45;;;;;;;14.55;9.18;;;;;;;18.36;100.00;64907.00;5051475;28;20288;-59
2023/06/25 03:03:11;;;;;;;13.52;8.73;;;;;;;18.30;100.00;64897.81;5051241;28;20198;-57
2023/06/25 03:05:36;;;;;;;11.40;7.82;;;;;;;18.33;100.00;64903.69;5032645;28;20216;-61
2023/06/25 03:08:02;;;;;;;14.45;8.93;;;;;;;18.34;100.00;64904.78;5051103;28;20204;-60
2023/06/25 03:10:30;;;;;;;13.07;8.48;;;;;;;18.25;100.00;64894.88;5051469;28;20292;-59
2023/06/25 03:12:56;;;;;;;15.10;9.27;;;;;;;18.25;100.00;64891.75;5051176;28;20197;-59
2023/06/25 03:15:22;;;;;;;14.63;8.80;;;;;;;18.27;100.00;64894.53;5051442;28;20274;-59
2023/06/25 03:17:48;;;;;;;11.40;8.38;;;;;;;18.23;100.00;64892.09;5051197;28;20216;-60
2023/06/25 03:20:13;;;;;;;12.85;8.88;;;;;;;18.20;100.00;64889.34;5051010;28;20216;-60
2023/06/25 03:22:39;;;;;;;15.23;8.60;;;;;;;18.20;100.00;64889.34;5050993;28;20197;-58
2023/06/25 03:25:05;;;;;;;12.43;8.98;;;;;;;18.27;100.00;64893.97;5050921;28;20252;-57
2023/06/25 03:27:33;;;;;;;13.63;9.45;;;;;;;18.26;100.00;64895.44;5050882;28;20228;-58
2023/06/25 03:29:58;;;;;;;12.80;8.80;;;;;;;18.23;100.00;64889.56;5050907;28;20647;-63
2023/06/25 03:32:24;;;;;;;13.13;9.18;;;;;;;18.24;100.00;64888.66;5050841;28;20280;-61
2023/06/25 03:34:49;;;;;;;12.98;9.00;;;;;;;18.26;100.00;64893.41;5051228;28;20241;-59
2023/06/25 03:37:15;;;;;;;17.55;9.07;;;;;;;18.18;100.00;64887.13;5051272;28;20201;-60
2023/06/25 03:39:40;;;;;;;13.73;9.32;;;;;;;18.18;100.00;64884.06;5051162;28;20292;-62
2023/06/25 03:42:05;;;;;;;14.82;8.57;;;;;;;18.19;100.00;64885.16;5032859;28;20216;-60
2023/06/25 03:44:31;;;;;;;20.25;10.73;;;;;;;18.20;100.00;64886.25;5051016;28;20262;-62
2023/06/25 03:46:56;;;;;;;18.70;10.80;;;;;;;18.25;100.00;64894.88;5050777;28;20210;-58
2023/06/25 03:49:22;;;;;;;24.60;13.43;;;;;;;18.42;100.00;64913.59;5050747;28;20275;-61
2023/06/25 03:51:47;;;;;;;20.05;12.18;;;;;;;18.48;100.00;64916.59;5050800;28;20273;-59
2023/06/25 03:54:13;;;;;;;18.15;9.10;;;;;;;18.60;100.00;64932.38;5050970;28;20209;-59
2023/06/25 03:56:38;;;;;;;15.80;9.10;;;;;;;18.45;100.00;64911.28;5051207;28;20201;-60
2023/06/25 03:59:03;;;;;;;14.02;8.43;;;;;;;18.71;100.00;64942.53;5050677;28;20224;-58
2023/06/25 04:01:29;;;;;;;13.02;9.25;;;;;;;18.76;100.00;64948.03;5050543;28;20251;-59
2023/06/25 04:03:54;;;;;;;12.88;7.85;;;;;;;18.94;100.00;64973.03;5050725;28;20209;-61
2023/06/25 04:06:21;;;;;;;11.00;8.00;;;;;;;19.14;100.00;64991.97;5050444;28;20300;-59
2023/06/25 04:08:46;;;;;;;12.93;8.05;;;;;;;19.18;100.00;64996.41;5050786;28;20220;-61
2023/06/25 04:11:18;;;;;;;12.77;8.38;;;;;;;19.02;100.00;64973.63;5050462;28;20193;-61
2023/06/25 04:13:43;;;;;;;17.02;8.65;;;;;;;18.97;100.00;64970.66;5050492;28;20229;-60
2023/06/25 04:16:09;;;;;;;13.20;8.50;;;;;;;18.97;100.00;64973.22;5050686;28;20197;-60
2023/06/25 04:18:37;;;;;;;14.07;8.82;;;;;;;19.19;100.00;64992.94;5053260;28;20212;-59
2023/06/25 04:21:04;;;;;;;13.52;8.75;;;;;;;19.21;100.00;64994.59;5053918;28;20280;-60
2023/06/25 04:23:29;;;;;;;14.82;8.48;;;;;;;19.03;100.00;64977.28;5053922;28;20209;-59
2023/06/25 04:25:55;;;;;;;13.98;8.80;;;;;;;18.93;100.00;64966.25;5053787;28;20729;-59
2023/06/25 04:28:20;;;;;;;14.60;9.07;;;;;;;18.84;100.00;64956.31;5053758;28;20210;-60
2023/06/25 04:30:45;;;;;;;11.93;7.93;;;;;;;19.01;100.00;64975.63;5053886;28;20582;-61
2023/06/25 04:33:11;;;;;;;16.30;8.50;;;;;;;19.00;100.00;64977.09;5053723;28;20276;-59
2023/06/25 04:35:36;;;;;;;16.27;8.82;;;;;;;19.11;100.00;64986.66;5053923;28;20207;-61
2023/06/25 04:38:01;;;;;;;15.10;9.38;;;;;;;19.20;100.00;64996.03;5053792;28;20591;-60
2023/06/25 04:40:28;;;;;;;11.73;8.15;;;;;;;19.14;100.00;64986.88;5053924;28;20276;-61
2023/06/25 04:42:53;;;;;;;13.02;8.15;;;;;;;18.95;100.00;64968.44;5053617;28;20652;-61
2023/06/25 04:45:19;;;;;;;11.27;7.63;;;;;;;19.09;100.00;64984.44;5053337;28;20687;-61
2023/06/25 04:47:44;;;;;;;12.38;8.02;;;;;;;18.96;100.00;64969.56;5053318;28;20217;-60
2023/06/25 04:50:10;;;;;;;10.85;7.28;;;;;;;19.11;100.00;64986.66;5053407;28;20709;-60
2023/06/25 04:52:36;;;;;;;10.82;7.55;;;;;;;19.19;100.00;64995.50;5053400;28;20244;-59
2023/06/25 04:55:01;;;;;;;10.75;6.93;;;;;;;19.03;100.00;64979.81;5053438;28;20213;-60
2023/06/25 04:57:27;;;;;;;9.63;7.35;;;;;;;19.08;100.00;64985.91;5053464;28;20586;-62
2023/06/25 04:59:52;;;;;;;11.35;7.38;;;;;;;19.32;100.00;65009.28;5035669;28;20218;-61
2023/06/25 05:02:18;;;;;;;13.43;6.78;;;;;;;19.21;100.00;64995.13;5053385;28;20189;-58
2023/06/25 05:04:43;;;;;;;13.05;7.25;;;;;;;19.07;100.00;64981.69;5053626;28;20210;-60
2023/06/25 05:07:09;;;;;;;14.48;7.80;;;;;;;19.14;100.00;64986.88;5035314;28;20263;-60
2023/06/25 05:09:35;;;;;;;12.95;7.88;;;;;;;19.26;100.00;65000.13;5053318;28;20721;-59
2023/06/25 05:12:00;;;;;;;13.57;7.72;;;;;;;19.48;100.00;65029.53;5053273;28;20229;-59
2023/06/25 05:14:27;;;;;;;14.07;8.35;;;;;;;19.43;100.00;65021.47;5053344;28;20209;-60
2023/06/25 05:16:53;;;;;;;11.52;7.35;;;;;;;19.13;100.00;64991.41;5053251;28;20258;-59
2023/06/25 05:19:18;;;;;;;13.68;7.75;;;;;;;19.19;100.00;64995.50;5035073;28;20221;-59
2023/06/25 05:21:44;;;;;;;9.07;7.15;;;;;;;19.31;100.00;65007.63;5053052;28;20194;-61
2023/06/25 05:24:09;;;;;;;15.00;7.82;;;;;;;19.32;100.00;65009.28;5053268;28;20370;-59
2023/06/25 05:26:35;;;;;;;10.77;6.93;;;;;;;19.35;100.00;65012.63;5052924;28;20213;-58
2023/06/25 05:29:01;;;;;;;12.05;7.70;;;;;;;19.25;100.00;65004.09;5052284;28;20216;-60
2023/06/25 05:31:28;;;;;;;12.07;8.27;;;;;;;19.16;100.00;64991.63;5052918;28;20280;-60
2023/06/25 05:33:54;;;;;;;14.85;8.07;;;;;;;19.12;100.00;64990.31;5053023;28;20679;-61
2023/06/25 05:36:20;;;;;;;12.95;7.93;;;;;;;19.02;100.00;64974.19;5052667;28;20653;-58
2023/06/25 05:38:46;;;;;;;10.73;7.32;;;;;;;19.15;100.00;64990.50;5034858;28;20648;-60
2023/06/25 05:41:11;;;;;;;9.15;7.45;;;;;;;19.24;100.00;65001.00;5052773;28;20675;-60
2023/06/25 05:43:37;;;;;;;13.15;7.93;;;;;;;19.55;100.00;65037.28;5034750;28;20259;-60
2023/06/25 05:46:02;;;;;;;11.23;7.35;;;;;;;19.61;100.00;65038.22;5052467;28;20201;-58
2023/06/25 05:48:28;;;;;;;12.60;7.90;;;;;;;19.47;100.00;65025.31;5052760;28;20267;-61
2023/06/25 05:50:53;;;;;;;12.55;7.22;;;;;;;19.46;100.00;65024.22;5052596;28;20272;-61
2023/06/25 05:53:22;;;;;;;11.50;7.45;;;;;;;19.37;100.00;65014.84;5052621;28;20242;-59
2023/06/25 05:55:47;;;;;;;14.32;6.80;;;;;;;19.35;100.00;65012.06;5052457;28;20205;-59
2023/06/25 05:58:13;;;;;;;9.90;6.68;;;;;;;19.66;100.00;65043.75;5052390;28;20212;-58
2023/06/25 06:00:38;;;;;;;12.40;6.68;;;;;;;19.70;100.00;65053.28;5034438;28;20232;-60
2023/06/25 06:03:04;;;;;;;9.27;6.57;;;;;;;19.52;100.00;65031.38;5052299;28;20240;-59
2023/06/25 06:05:29;;;;;;;8.90;6.43;;;;;;;19.48;100.00;65024.41;5052186;28;20202;-61
2023/06/25 06:07:54;;;;;;;12.15;6.75;;;;;;;19.53;100.00;65032.50;5052354;28;20192;-61
2023/06/25 06:10:20;;;;;;;9.55;6.18;;;;;;;19.58;100.00;65038.03;5052304;28;20208;-63
2023/06/25 06:12:45;;;;;;;10.13;6.15;;;;;;;19.63;100.00;65041.00;5034170;28;20205;-63
2023/06/25 06:15:11;;;;;;;10.90;6.28;;;;;;;19.89;100.00;65072.25;5052143;28;20213;-64
2023/06/25 06:17:36;;;;;;;11.77;6.38;;;;;;;19.99;100.00;65080.75;5052021;28;20204;-60
2023/06/25 06:20:03;;;;;;;9.15;6.03;;;;;;;19.85;100.00;65070.41;5052189;28;20218;-63
2023/06/25 06:22:29;;;;;;;10.32;5.97;;;;;;;19.69;100.00;65047.06;5051960;28;20197;-61
2023/06/25 06:24:54;;;;;;;9.75;6.43;;;;;;;19.60;100.00;65037.66;5051713;28;20216;-61
2023/06/25 06:27:20;;;;;;;7.45;5.20;;;;;;;19.62;100.00;65041.88;5051772;28;20586;-60
2023/06/25 06:29:45;;;;;;;9.02;6.05;;;;;;;19.58;100.00;65037.47;5034109;28;20275;-62
2023/06/25 06:32:11;;;;;;;6.55;5.10;;;;;;;19.65;100.00;65048.31;5052129;28;20826;-62
2023/06/25 06:34:36;;;;;;;7.93;6.00;;;;;;;19.48;100.00;65026.41;5052191;28;20217;-60
2023/06/25 06:37:02;;;;;;;7.20;5.57;;;;;;;19.63;100.00;65041.00;5051671;28;20194;-60
2023/06/25 06:39:28;;;;;;;9.65;5.25;;;;;;;20.56;100.00;65145.19;5051950;28;20213;-61
2023/06/25 06:41:53;;;;;;;8.20;5.38;;;;;;;21.15;100.00;65207.88;5051954;28;20204;-61
2023/06/25 06:44:19;;;;;;;11.00;6.38;;;;;;;21.19;100.00;65214.31;5052071;28;20706;-58
2023/06/25 06:46:45;;;;;;;9.57;5.78;;;;;;;21.14;100.00;65211.91;5051766;28;20231;-60
2023/06/25 06:49:12;;;;;;;11.95;5.13;;;;;;;21.28;100.00;65224.81;5051708;28;20220;-60
2023/06/25 06:51:39;;;;;;;6.72;4.78;;;;;;;21.11;100.00;65202.91;5051574;28;20197;-61
2023/06/25 06:54:05;;;;;;;7.78;5.50;;;;;;;21.10;100.00;65202.34;5051511;28;20209;-61
2023/06/25 06:56:31;;;;;;;7.18;5.68;;;;;;;21.73;100.00;65271.47;5051494;28;20216;-61
2023/06/25 06:58:57;;;;;;;6.72;5.28;;;;;;;21.69;100.00;65270.16;5033661;28;20219;-62
2023/06/25 07:01:22;;;;;;;8.32;5.35;;;;;;;21.64;100.00;65262.06;5051413;28;20647;-60
2023/06/25 07:03:48;;;;;;;7.65;5.30;;;;;;;21.51;100.00;65252.28;5051394;28;20734;-60
2023/06/25 07:06:13;;;;;;;6.72;5.28;;;;;;;21.40;100.00;65240.66;5051123;28;20263;-61
2023/06/25 07:08:39;;;;;;;10.82;5.97;;;;;;;21.40;100.00;65238.09;5050959;28;20212;-60
2023/06/25 07:11:04;;;;;;;7.78;5.75;;;;;;;21.52;100.00;65248.78;5050980;28;20732;-60
2023/06/25 07:13:32;;;;;;;9.48;6.47;;;;;;;21.47;100.00;65243.25;5051312;28;20588;-61
2023/06/25 07:15:57;;;;;;;6.65;5.75;;;;;;;21.54;100.00;65253.00;5051100;28;20527;-59
2023/06/25 07:18:22;;;;;;;7.45;5.30;;;;;;;21.55;100.00;65251.56;5051075;28;20293;-60
2023/06/25 07:20:48;;;;;;;9.90;5.55;;;;;;;21.84;100.00;65283.66;5050879;28;20200;-60
2023/06/25 07:23:13;;;;;;;5.85;5.13;;;;;;;22.14;100.00;65316.84;5051052;28;20217;-59
2023/06/25 07:25:38;;;;;;;7.22;4.97;;;;;;;22.28;100.00;65331.81;5050670;28;20271;-60
2023/06/25 07:28:04;;;;;;;5.70;5.10;;;;;;;22.45;100.00;65351.19;5051053;28;20198;-59
2023/06/25 07:30:30;;;;;;;6.43;4.72;;;;;;;22.42;100.00;65350.41;5050840;28;20694;-59
2023/06/25 07:32:57;;;;;;;7.05;5.10;;;;;;;22.21;100.00;65324.06;5050754;28;20310;-60
2023/06/25 07:35:22;;;;;;;8.85;6.03;;;;;;;22.17;100.00;65319.63;5050663;28;20762;-62
2023/06/25 07:37:48;;;;;;;8.90;5.95;;;;;;;22.05;100.00;65309.47;5050622;28;20284;-60
2023/06/25 07:40:13;;;;;;;8.38;6.43;;;;;;;22.31;100.00;65335.69;5050817;28;20225;-60
2023/06/25 07:42:39;;;;;;;8.55;6.82;;;;;;;22.42;100.00;65347.31;5050674;28;20633;-59
2023/06/25 07:45:05;;;;;;;10.20;7.75;;;;;;;22.59;100.00;65365.59;5050931;28;20322;-59
2023/06/25 07:47:30;;;;;;;10.07;7.53;;;;;;;22.90;100.00;65399.91;5050776;28;20217;-60
2023/06/25 07:49:55;;;;;;;7.28;6.13;;;;;;;23.10;100.00;65422.63;5050704;28;20216;-62
2023/06/25 07:52:21;;;;;;;7.57;6.38;;;;;;;23.13;100.00;65425.38;5035311;28;20197;-60
2023/06/25 07:54:46;;;;;;;7.80;5.53;;;;;;;23.13;100.00;65425.38;5057348;28;20224;-62
2023/06/25 07:57:12;;;;;;;6.10;4.97;;;;;;;23.23;100.00;65436.47;5057291;28;20197;-61
2023/06/25 07:59:37;;;;;;;6.35;4.88;;;;;;;22.46;100.00;65354.31;5057018;28;20330;-62
2023/06/25 08:02:09;;;;;;;6.40;4.68;;;;;;;22.65;100.00;65372.22;5057186;28;20205;-64
2023/06/25 08:04:35;;;;;;;12.48;8.07;;;;;;;22.64;100.00;65371.69;5057400;28;20212;-62
2023/06/25 08:07:01;;;;;;;10.02;7.43;;;;;;;22.91;100.00;65401.00;5056875;28;20209;-62
2023/06/25 08:09:26;;;;;;;6.35;4.97;;;;;;;23.01;100.00;65412.09;5057189;28;20201;-62
2023/06/25 08:11:52;;;;;;;5.90;5.07;;;;;;;22.77;100.00;65385.50;5056854;28;20224;-63
2023/06/25 08:14:17;;;;;;;5.57;5.05;;;;;;;22.40;100.00;65345.09;5057387;28;20203;-61
2023/06/25 08:16:43;;;;;;;10.13;6.88;;;;;;;22.05;100.00;65309.47;5056964;28;20716;-62
2023/06/25 08:19:08;;;;;;;8.57;6.95;;;;;;;21.74;100.00;65275.69;5056530;28;20217;-61
2023/06/25 08:21:33;;;;;;;11.32;8.43;;;;;;;21.59;100.00;65256.00;5037696;28;20232;-60
2023/06/25 08:23:59;;;;;;;8.27;6.43;;;;;;;21.72;100.00;65272.94;5056195;28;20250;-60
2023/06/25 08:26:24;;;;;;;10.32;5.43;;;;;;;21.85;100.00;65286.78;5056674;28;20209;-60
2023/06/25 08:28:50;;;;;;;8.23;6.35;;;;;;;21.87;100.00;65289.00;5056522;28;20563;-61
2023/06/25 08:31:16;;;;;;;11.10;8.40;;;;;;;22.04;100.00;65305.78;5056712;28;20201;-60
2023/06/25 08:33:41;;;;;;;9.10;6.25;;;;;;;21.94;100.00;65294.19;5056928;28;20216;-60
2023/06/25 08:36:07;;;;;;;10.40;7.43;;;;;;;21.88;100.00;65288.09;5056765;28;20285;-62
2023/06/25 08:38:32;;;;;;;10.30;6.85;;;;;;;21.72;100.00;65270.91;5056529;28;20213;-61
2023/06/25 08:40:58;;;;;;;11.50;7.55;;;;;;;21.65;100.00;65265.72;5056850;28;20686;-63
2023/06/25 08:43:24;;;;;;;10.80;7.15;;;;;;;21.79;100.00;65275.56;5055697;28;20231;-63
2023/06/25 08:45:49;;;;;;;7.88;5.85;;;;;;;21.71;100.00;65269.25;5056917;28;20239;-61
2023/06/25 08:48:17;;;;;;;9.98;6.88;;;;;;;21.56;100.00;65252.66;5056876;28;20209;-59
2023/06/25 08:50:45;;;;;;;6.88;6.07;;;;;;;21.63;100.00;65263.53;5038781;28;20280;-60
2023/06/25 08:53:11;;;;;;;7.03;5.28;;;;;;;22.00;100.00;65300.81;5056429;28;20232;-61
2023/06/25 08:55:39;;;;;;;10.10;8.35;;;;;;;21.74;100.00;65273.13;5056675;28;20194;-58
2023/06/25 08:58:05;;;;;;;7.28;6.32;;;;;;;21.96;100.00;65296.41;5056496;28;20221;-58
2023/06/25 09:00:30;;;;;;;7.95;6.53;;;;;;;22.00;100.00;65301.38;5056652;28;20230;-59
2023/06/25 09:02:55;;;;;;;8.70;6.68;;;;;;;22.30;100.00;65334.03;5056302;28;20189;-57
2023/06/25 09:05:26;;;;;;;6.25;5.22;;;;;;;22.21;100.00;65324.06;5052198;28;20634;-58
2023/06/25 09:07:52;;;;;;;9.88;6.95;;;;;;;22.19;100.00;65321.84;5052977;28;20570;-58
2023/06/25 09:10:21;;;;;;;7.93;5.78;;;;;;;22.40;100.00;65345.63;5053351;28;20244;-62
2023/06/25 09:12:51;;;;;;;7.55;6.45;;;;;;;22.68;100.00;65376.13;5035198;28;20205;-58
2023/06/25 09:15:21;;;;;;;7.10;5.95;;;;;;;22.70;100.00;65378.34;5052935;28;20243;-58
2023/06/25 09:17:46;;;;;;;7.13;5.60;;;;;;;22.88;100.00;65398.25;5053070;28;20280;-58
2023/06/25 09:20:12;;;;;;;6.35;5.25;;;;;;;22.64;100.00;65374.25;5052871;28;20288;-57
2023/06/25 09:22:56;;;;;;;6.07;4.85;;;;;;;22.89;100.00;65399.38;5053109;28;20239;-61
2023/06/25 09:25:28;;;;;;;5.15;4.43;;;;;;;23.30;100.00;65444.78;5052840;28;20224;-62
2023/06/25 09:27:55;;;;;;;6.00;4.88;;;;;;;22.90;100.00;65399.91;5052655;28;20754;-62
2023/06/25 09:30:23;;;;;;;5.72;4.13;;;;;;;22.84;100.00;65393.84;5052694;28;20236;-60
2023/06/25 09:32:52;;;;;;;5.50;4.20;;;;;;;23.26;100.00;65442.94;5052856;28;20673;-60
2023/06/25 09:35:22;;;;;;;5.65;3.80;;;;;;;23.58;100.00;65472.69;5052713;28;20205;-60
2023/06/25 09:37:52;;;;;;;5.78;4.25;;;;;;;23.70;100.00;65488.00;5052465;28;20201;-60
2023/06/25 09:40:21;;;;;;;4.70;4.20;;;;;;;23.79;100.00;65498.00;5052657;28;20213;-59
2023/06/25 09:42:48;;;;;;;5.28;4.07;;;;;;;23.31;99.20;65443.34;5052540;28;20199;-59
2023/06/25 09:45:15;;;;;;;5.00;3.70;;;;;;;23.54;98.23;65472.84;5052412;28;20721;-61
2023/06/25 09:47:45;;;;;;;4.55;4.03;;;;;;;23.59;100.00;65475.84;5052446;28;20214;-60
2023/06/25 09:50:18;;;;;;;4.45;4.05;;;;;;;23.76;96.09;65497.22;5052466;28;20237;-60
2023/06/25 09:52:58;;;;;;;5.30;3.75;;;;;;;23.66;94.29;65486.16;5052488;28;20282;-57
2023/06/25 09:55:26;;;;;;;6.07;4.50;;;;;;;23.29;100.00;65443.13;5034548;28;20205;-57
2023/06/25 09:57:53;;;;;;;7.75;4.78;;;;;;;23.18;100.00;65433.50;5052379;28;20280;-59
2023/06/25 10:00:21;;;;;;;5.95;4.43;;;;;;;22.87;100.00;65394.00;5052355;28;20299;-58
2023/06/25 10:02:47;;;;;;;6.40;4.38;;;;;;;22.74;100.00;65382.75;5052121;28;20201;-58
2023/06/25 10:05:13;;;;;;;4.63;4.00;;;;;;;23.07;99.96;65421.88;5052071;28;20699;-57
2023/06/25 10:07:39;;;;;;;8.00;4.40;;;;;;;23.28;100.00;65442.00;5052233;28;20263;-59
2023/06/25 10:10:06;;;;;;;5.15;4.43;;;;;;;23.39;100.00;65453.66;5052098;28;20359;-58
2023/06/25 10:12:38;;;;;;;5.38;3.85;;;;;;;23.80;96.84;65499.66;5052152;28;20284;-59
2023/06/25 10:15:04;;;;;;;6.85;4.30;;;;;;;24.06;94.98;65530.50;5051677;28;20245;-57
2023/06/25 10:17:30;;;;;;;5.78;4.30;;;;;;;24.13;96.57;65538.28;5052068;28;20212;-59
2023/06/25 10:19:58;;;;;;;7.97;4.65;;;;;;;24.09;95.67;65531.84;5052265;28;20197;-57
2023/06/25 10:22:26;;;;;;;5.13;4.57;;;;;;;23.76;96.70;65497.78;5052237;28;20195;-58
2023/06/25 10:24:53;;;;;;;6.13;5.22;;;;;;;23.79;96.24;65498.00;5052161;28;20698;-59
2023/06/25 10:27:26;;;;;;;6.32;4.10;;;;;;;24.31;99.17;65555.66;5052129;28;20217;-59
2023/06/25 10:29:53;;;;;;;9.73;5.38;;;;;;;24.45;97.07;65571.19;5051865;28;20209;-58
2023/06/25 10:32:24;;;;;;;8.23;4.93;;;;;;;24.08;93.19;65527.56;5051819;28;20198;-58
2023/06/25 10:34:55;;;;;;;6.50;4.90;;;;;;;24.27;94.14;65548.09;5051949;28;20217;-62
2023/06/25 10:37:20;;;;;;;4.20;3.80;;;;;;;24.13;92.25;65533.69;5051877;28;20197;-58
2023/06/25 10:39:46;;;;;;;6.22;4.22;;;;;;;24.33;91.61;65554.75;5051615;28;20683;-58
2023/06/25 10:42:12;;;;;;;4.97;4.40;;;;;;;24.22;91.83;65545.69;5051746;28;20690;-60
2023/06/25 10:44:38;;;;;;;6.60;4.47;;;;;;;24.84;90.80;65611.34;5051915;28;20212;-60
2023/06/25 10:47:05;;;;;;;4.97;3.95;;;;;;;24.86;89.02;65616.13;5051581;28;20343;-60
2023/06/25 10:49:30;;;;;;;5.47;4.40;;;;;;;25.17;94.16;65649.97;5070351;22;20717;-61
2023/06/25 10:51:59;;;;;;;5.75;3.85;;;;;;;25.02;87.54;65633.31;5071736;28;20204;-60
2023/06/25 10:54:25;;;;;;;6.43;4.78;;;;;;;24.71;89.63;65600.03;5071433;28;20705;-61
2023/06/25 10:56:54;;;;;;;5.60;4.40;;;;;;;24.99;87.29;65631.09;5071576;28;20200;-61
2023/06/25 10:59:23;;;;;;;6.90;4.57;;;;;;;25.40;86.34;65675.50;5071716;28;20211;-56
2023/06/25 11:01:50;;;;;;;7.13;4.40;;;;;;;25.14;83.94;65647.22;5071501;28;20577;-56
2023/06/25 11:04:16;;;;;;;4.93;4.43;;;;;;;25.25;86.03;65656.81;5071475;28;20293;-59
2023/06/25 11:06:42;;;;;;;7.55;4.40;;;;;;;25.41;90.42;65674.59;5071474;28;20777;-58
2023/06/25 11:09:07;;;;;;;6.18;4.15;;;;;;;26.02;85.09;65741.78;5071150;28;20617;-57
2023/06/25 11:11:32;;;;;;;6.05;3.80;;;;;;;26.15;87.20;65758.81;5071465;28;20197;-58
2023/06/25 11:14:00;;;;;;;5.55;4.38;;;;;;;26.94;84.15;65842.91;5071075;28;20209;-59
2023/06/25 11:16:25;;;;;;;4.53;4.05;;;;;;;26.44;84.22;65791.03;5071211;28;20295;-59